sensor_id;sensor_type;location;lat;lon;timestamp;temperature;humidity
69944;DHT22;57257;48.408;-4.498;2022-11-15T00:00:32;14.24;83.80
69944;DHT22;57257;48.408;-4.498;2022-11-15T00:02:57;14.25;83.93
69944;DHT22;57257;48.408;-4.498;2022-11-15T00:05:22;14.27;83.93
69944;DHT22;57257;48.408;-4.498;2022-11-15T00:07:48;14.25;83.99
69944;DHT22;57257;48.408;-4.498;2022-11-15T00:10:13;14.27;84.13
69944;DHT22;57257;48.408;-4.498;2022-11-15T00:12:39;14.28;84.19
69944;DHT22;57257;48.408;-4.498;2022-11-15T00:15:05;14.30;84.18
69944;DHT22;57257;48.408;-4.498;2022-11-15T00:17:30;14.30;84.20
69944;DHT22;57257;48.408;-4.498;2022-11-15T00:19:56;14.30;84.16
69944;DHT22;57257;48.408;-4.498;2022-11-15T00:22:21;14.27;84.19
69944;DHT22;57257;48.408;-4.498;2022-11-15T00:24:47;14.30;84.24
69944;DHT22;57257;48.408;-4.498;2022-11-15T00:27:12;14.31;84.37
69944;DHT22;57257;48.408;-4.498;2022-11-15T00:29:38;14.31;84.28
69944;DHT22;57257;48.408;-4.498;2022-11-15T00:32:04;14.33;84.36
69944;DHT22;57257;48.408;-4.498;2022-11-15T00:34:30;14.31;84.51
69944;DHT22;57257;48.408;-4.498;2022-11-15T00:36:55;14.31;84.52
69944;DHT22;57257;48.408;-4.498;2022-11-15T00:39:20;14.35;84.53
69944;DHT22;57257;48.408;-4.498;2022-11-15T00:41:46;14.38;84.49
69944;DHT22;57257;48.408;-4.498;2022-11-15T00:44:11;14.37;84.56
69944;DHT22;57257;48.408;-4.498;2022-11-15T00:46:37;14.38;84.59
69944;DHT22;57257;48.408;-4.498;2022-11-15T00:49:02;14.44;84.54
69944;DHT22;57257;48.408;-4.498;2022-11-15T00:51:28;14.42;84.56
69944;DHT22;57257;48.408;-4.498;2022-11-15T00:53:53;14.45;84.53
69944;DHT22;57257;48.408;-4.498;2022-11-15T00:56:19;14.44;84.75
69944;DHT22;57257;48.408;-4.498;2022-11-15T00:58:44;14.44;84.72
69944;DHT22;57257;48.408;-4.498;2022-11-15T01:01:12;14.41;84.74
69944;DHT22;57257;48.408;-4.498;2022-11-15T01:03:40;14.42;84.83
69944;DHT22;57257;48.408;-4.498;2022-11-15T01:06:06;14.48;84.76
69944;DHT22;57257;48.408;-4.498;2022-11-15T01:08:32;14.47;84.79
69944;DHT22;57257;48.408;-4.498;2022-11-15T01:11:06;14.47;84.80
69944;DHT22;57257;48.408;-4.498;2022-11-15T01:13:34;14.49;84.77
69944;DHT22;57257;48.408;-4.498;2022-11-15T01:16:09;14.47;84.73
69944;DHT22;57257;48.408;-4.498;2022-11-15T01:18:35;14.51;84.65
69944;DHT22;57257;48.408;-4.498;2022-11-15T01:21:11;14.51;84.67
69944;DHT22;57257;48.408;-4.498;2022-11-15T01:23:37;14.49;84.68
69944;DHT22;57257;48.408;-4.498;2022-11-15T01:26:04;14.49;84.71
69944;DHT22;57257;48.408;-4.498;2022-11-15T01:28:35;14.49;84.74
69944;DHT22;57257;48.408;-4.498;2022-11-15T01:31:03;14.52;84.68
69944;DHT22;57257;48.408;-4.498;2022-11-15T01:33:29;14.52;84.64
69944;DHT22;57257;48.408;-4.498;2022-11-15T01:35:55;14.51;84.75
69944;DHT22;57257;48.408;-4.498;2022-11-15T01:38:21;14.49;84.69
69944;DHT22;57257;48.408;-4.498;2022-11-15T01:40:46;14.49;84.70
69944;DHT22;57257;48.408;-4.498;2022-11-15T01:45:56;14.48;84.75
69944;DHT22;57257;48.408;-4.498;2022-11-15T01:48:30;14.48;84.71
69944;DHT22;57257;48.408;-4.498;2022-11-15T01:50:57;14.48;84.71
69944;DHT22;57257;48.408;-4.498;2022-11-15T01:53:24;14.49;84.81
69944;DHT22;57257;48.408;-4.498;2022-11-15T01:55:50;14.48;84.82
69944;DHT22;57257;48.408;-4.498;2022-11-15T01:58:15;14.48;84.79
69944;DHT22;57257;48.408;-4.498;2022-11-15T02:00:41;14.52;84.82
69944;DHT22;57257;48.408;-4.498;2022-11-15T02:03:06;14.49;84.81
69944;DHT22;57257;48.408;-4.498;2022-11-15T02:05:32;14.52;84.77
69944;DHT22;57257;48.408;-4.498;2022-11-15T02:07:59;14.51;84.85
69944;DHT22;57257;48.408;-4.498;2022-11-15T02:10:25;14.54;84.81
69944;DHT22;57257;48.408;-4.498;2022-11-15T02:12:51;14.55;84.85
69944;DHT22;57257;48.408;-4.498;2022-11-15T02:15:17;14.55;84.80
69944;DHT22;57257;48.408;-4.498;2022-11-15T02:29:02;14.57;85.05
69944;DHT22;57257;48.408;-4.498;2022-11-15T02:31:43;14.58;85.06
69944;DHT22;57257;48.408;-4.498;2022-11-15T02:37:15;14.57;85.19
69944;DHT22;57257;48.408;-4.498;2022-11-15T02:39:49;14.57;85.20
69944;DHT22;57257;48.408;-4.498;2022-11-15T02:42:26;14.58;85.20
69944;DHT22;57257;48.408;-4.498;2022-11-15T02:45:17;14.57;85.16
69944;DHT22;57257;48.408;-4.498;2022-11-15T02:47:45;14.58;85.18
69944;DHT22;57257;48.408;-4.498;2022-11-15T02:50:17;14.65;85.09
69944;DHT22;57257;48.408;-4.498;2022-11-15T02:52:48;14.67;85.11
69944;DHT22;57257;48.408;-4.498;2022-11-15T03:08:32;14.77;85.13
69944;DHT22;57257;48.408;-4.498;2022-11-15T03:11:10;14.82;85.09
69944;DHT22;57257;48.408;-4.498;2022-11-15T03:13:57;14.81;85.09
69944;DHT22;57257;48.408;-4.498;2022-11-15T03:16:44;14.82;85.12
69944;DHT22;57257;48.408;-4.498;2022-11-15T03:21:55;14.85;85.09
69944;DHT22;57257;48.408;-4.498;2022-11-15T03:24:23;14.89;85.19
69944;DHT22;57257;48.408;-4.498;2022-11-15T03:26:52;14.92;85.17
69944;DHT22;57257;48.408;-4.498;2022-11-15T03:29:29;14.89;85.19
69944;DHT22;57257;48.408;-4.498;2022-11-15T03:32:04;14.88;85.19
69944;DHT22;57257;48.408;-4.498;2022-11-15T03:34:54;14.89;85.11
69944;DHT22;57257;48.408;-4.498;2022-11-15T03:37:25;14.91;85.08
69944;DHT22;57257;48.408;-4.498;2022-11-15T03:39:52;14.93;85.06
69944;DHT22;57257;48.408;-4.498;2022-11-15T03:42:30;14.92;85.06
69944;DHT22;57257;48.408;-4.498;2022-11-15T03:45:17;14.93;85.02
69944;DHT22;57257;48.408;-4.498;2022-11-15T03:47:53;14.92;85.04
69944;DHT22;57257;48.408;-4.498;2022-11-15T03:50:24;14.89;85.00
69944;DHT22;57257;48.408;-4.498;2022-11-15T03:52:50;14.89;85.02
69944;DHT22;57257;48.408;-4.498;2022-11-15T03:55:18;14.93;84.98
69944;DHT22;57257;48.408;-4.498;2022-11-15T03:57:44;14.89;85.03
69944;DHT22;57257;48.408;-4.498;2022-11-15T04:00:10;14.89;85.14
69944;DHT22;57257;48.408;-4.498;2022-11-15T04:02:36;14.89;85.16
69944;DHT22;57257;48.408;-4.498;2022-11-15T04:05:02;14.91;85.18
69944;DHT22;57257;48.408;-4.498;2022-11-15T04:07:27;14.88;85.18
69944;DHT22;57257;48.408;-4.498;2022-11-15T04:09:52;14.87;85.30
69944;DHT22;57257;48.408;-4.498;2022-11-15T04:12:27;14.89;85.32
69944;DHT22;57257;48.408;-4.498;2022-11-15T04:15:01;14.89;85.43
69944;DHT22;57257;48.408;-4.498;2022-11-15T04:17:41;14.89;85.43
69944;DHT22;57257;48.408;-4.498;2022-11-15T04:20:13;14.89;85.40
69944;DHT22;57257;48.408;-4.498;2022-11-15T04:22:58;14.91;85.41
69944;DHT22;57257;48.408;-4.498;2022-11-15T04:25:43;14.92;85.44
69944;DHT22;57257;48.408;-4.498;2022-11-15T04:28:09;14.93;85.48
69944;DHT22;57257;48.408;-4.498;2022-11-15T04:30:35;14.93;85.65
69944;DHT22;57257;48.408;-4.498;2022-11-15T04:33:00;14.95;85.72
69944;DHT22;57257;48.408;-4.498;2022-11-15T04:35:26;14.99;85.74
69944;DHT22;57257;48.408;-4.498;2022-11-15T04:37:52;15.01;85.76
69944;DHT22;57257;48.408;-4.498;2022-11-15T04:40:17;15.03;85.81
69944;DHT22;57257;48.408;-4.498;2022-11-15T04:42:43;15.01;85.81
69944;DHT22;57257;48.408;-4.498;2022-11-15T04:45:09;15.05;85.82
69944;DHT22;57257;48.408;-4.498;2022-11-15T04:47:35;15.05;85.78
69944;DHT22;57257;48.408;-4.498;2022-11-15T04:50:00;15.03;85.72
69944;DHT22;57257;48.408;-4.498;2022-11-15T04:52:25;15.02;85.51
69944;DHT22;57257;48.408;-4.498;2022-11-15T04:54:51;15.02;85.36
69944;DHT22;57257;48.408;-4.498;2022-11-15T04:57:16;15.01;85.24
69944;DHT22;57257;48.408;-4.498;2022-11-15T04:59:42;15.03;85.18
69944;DHT22;57257;48.408;-4.498;2022-11-15T05:02:07;15.03;85.08
69944;DHT22;57257;48.408;-4.498;2022-11-15T05:04:32;15.03;85.08
69944;DHT22;57257;48.408;-4.498;2022-11-15T05:06:58;15.05;85.14
69944;DHT22;57257;48.408;-4.498;2022-11-15T05:09:23;15.06;85.09
69944;DHT22;57257;48.408;-4.498;2022-11-15T05:11:49;15.02;84.83
69944;DHT22;57257;48.408;-4.498;2022-11-15T05:14:15;14.96;84.49
69944;DHT22;57257;48.408;-4.498;2022-11-15T05:16:40;14.91;84.27
69944;DHT22;57257;48.408;-4.498;2022-11-15T05:19:07;14.88;84.12
69944;DHT22;57257;48.408;-4.498;2022-11-15T05:21:32;14.82;84.00
69944;DHT22;57257;48.408;-4.498;2022-11-15T05:23:58;14.81;83.72
69944;DHT22;57257;48.408;-4.498;2022-11-15T05:26:24;14.71;83.43
69944;DHT22;57257;48.408;-4.498;2022-11-15T05:28:57;14.63;83.03
69944;DHT22;57257;48.408;-4.498;2022-11-15T05:31:23;14.55;82.85
69944;DHT22;57257;48.408;-4.498;2022-11-15T05:33:50;14.49;82.74
69944;DHT22;57257;48.408;-4.498;2022-11-15T05:39:01;14.40;82.47
69944;DHT22;57257;48.408;-4.498;2022-11-15T05:41:31;14.33;82.30
69944;DHT22;57257;48.408;-4.498;2022-11-15T05:43:58;14.23;81.54
69944;DHT22;57257;48.408;-4.498;2022-11-15T05:46:23;14.13;81.19
69944;DHT22;57257;48.408;-4.498;2022-11-15T05:48:51;14.03;81.26
69944;DHT22;57257;48.408;-4.498;2022-11-15T05:51:19;14.00;81.23
69944;DHT22;57257;48.408;-4.498;2022-11-15T05:53:46;13.97;81.13
69944;DHT22;57257;48.408;-4.498;2022-11-15T05:56:12;13.94;81.20
69944;DHT22;57257;48.408;-4.498;2022-11-15T05:58:38;13.93;81.17
69944;DHT22;57257;48.408;-4.498;2022-11-15T06:01:04;13.93;81.09
69944;DHT22;57257;48.408;-4.498;2022-11-15T06:03:29;13.93;81.19
69944;DHT22;57257;48.408;-4.498;2022-11-15T06:05:56;13.94;81.08
69944;DHT22;57257;48.408;-4.498;2022-11-15T06:08:21;13.93;80.96
69944;DHT22;57257;48.408;-4.498;2022-11-15T06:10:47;13.94;80.99
69944;DHT22;57257;48.408;-4.498;2022-11-15T06:13:12;13.97;81.07
69944;DHT22;57257;48.408;-4.498;2022-11-15T06:15:38;13.94;81.04
69944;DHT22;57257;48.408;-4.498;2022-11-15T06:18:03;13.94;81.00
69944;DHT22;57257;48.408;-4.498;2022-11-15T06:20:29;13.94;81.01
69944;DHT22;57257;48.408;-4.498;2022-11-15T06:22:59;13.97;80.96
69944;DHT22;57257;48.408;-4.498;2022-11-15T06:25:25;13.94;80.90
69944;DHT22;57257;48.408;-4.498;2022-11-15T06:27:55;13.99;80.96
69944;DHT22;57257;48.408;-4.498;2022-11-15T06:30:21;13.99;80.92
69944;DHT22;57257;48.408;-4.498;2022-11-15T06:32:47;14.02;80.96
69944;DHT22;57257;48.408;-4.498;2022-11-15T06:35:13;14.02;80.97
69944;DHT22;57257;48.408;-4.498;2022-11-15T06:37:39;14.04;80.91
69944;DHT22;57257;48.408;-4.498;2022-11-15T06:40:05;14.03;80.70
69944;DHT22;57257;48.408;-4.498;2022-11-15T06:42:30;14.04;80.59
69944;DHT22;57257;48.408;-4.498;2022-11-15T06:44:56;14.03;80.65
69944;DHT22;57257;48.408;-4.498;2022-11-15T06:47:21;14.04;80.47
69944;DHT22;57257;48.408;-4.498;2022-11-15T06:49:47;14.04;80.38
69944;DHT22;57257;48.408;-4.498;2022-11-15T06:52:12;14.02;80.27
69944;DHT22;57257;48.408;-4.498;2022-11-15T06:54:37;14.02;80.20
69944;DHT22;57257;48.408;-4.498;2022-11-15T06:57:04;14.00;80.23
69944;DHT22;57257;48.408;-4.498;2022-11-15T06:59:29;14.02;80.28
69944;DHT22;57257;48.408;-4.498;2022-11-15T07:01:55;14.04;80.22
69944;DHT22;57257;48.408;-4.498;2022-11-15T07:04:20;14.04;80.06
69944;DHT22;57257;48.408;-4.498;2022-11-15T07:06:47;14.03;80.10
69944;DHT22;57257;48.408;-4.498;2022-11-15T07:09:13;14.04;79.91
69944;DHT22;57257;48.408;-4.498;2022-11-15T07:11:38;14.00;79.86
69944;DHT22;57257;48.408;-4.498;2022-11-15T07:14:04;14.00;79.58
69944;DHT22;57257;48.408;-4.498;2022-11-15T07:16:29;13.94;79.61
69944;DHT22;57257;48.408;-4.498;2022-11-15T07:18:55;13.90;79.46
69944;DHT22;57257;48.408;-4.498;2022-11-15T07:21:20;13.86;79.65
69944;DHT22;57257;48.408;-4.498;2022-11-15T07:23:45;13.83;79.87
69944;DHT22;57257;48.408;-4.498;2022-11-15T07:26:11;13.86;80.06
69944;DHT22;57257;48.408;-4.498;2022-11-15T07:28:36;13.90;80.15
69944;DHT22;57257;48.408;-4.498;2022-11-15T07:31:03;13.89;79.98
69944;DHT22;57257;48.408;-4.498;2022-11-15T07:33:30;13.91;79.98
69944;DHT22;57257;48.408;-4.498;2022-11-15T07:35:59;13.90;79.95
69944;DHT22;57257;48.408;-4.498;2022-11-15T07:38:27;13.93;79.97
69944;DHT22;57257;48.408;-4.498;2022-11-15T07:41:01;13.91;79.94
69944;DHT22;57257;48.408;-4.498;2022-11-15T07:43:27;13.89;79.94
69944;DHT22;57257;48.408;-4.498;2022-11-15T07:47:57;13.86;79.95
69944;DHT22;57257;48.408;-4.498;2022-11-15T07:50:23;13.86;79.75
69944;DHT22;57257;48.408;-4.498;2022-11-15T07:52:56;13.83;79.98
69944;DHT22;57257;48.408;-4.498;2022-11-15T07:55:23;13.84;79.92
69944;DHT22;57257;48.408;-4.498;2022-11-15T07:57:49;13.86;79.87
69944;DHT22;57257;48.408;-4.498;2022-11-15T08:00:15;13.82;79.38
69944;DHT22;57257;48.408;-4.498;2022-11-15T08:02:41;13.82;79.55
69944;DHT22;57257;48.408;-4.498;2022-11-15T08:05:06;13.79;79.29
69944;DHT22;57257;48.408;-4.498;2022-11-15T08:07:32;13.77;79.36
69944;DHT22;57257;48.408;-4.498;2022-11-15T08:09:58;13.82;79.34
69944;DHT22;57257;48.408;-4.498;2022-11-15T08:12:24;13.83;79.36
69944;DHT22;57257;48.408;-4.498;2022-11-15T08:14:49;13.84;79.24
69944;DHT22;57257;48.408;-4.498;2022-11-15T08:17:15;13.86;79.15
69944;DHT22;57257;48.408;-4.498;2022-11-15T08:19:41;13.86;79.06
69944;DHT22;57257;48.408;-4.498;2022-11-15T08:22:07;13.84;79.19
69944;DHT22;57257;48.408;-4.498;2022-11-15T08:24:32;13.89;79.33
69944;DHT22;57257;48.408;-4.498;2022-11-15T08:26:59;13.91;79.13
69944;DHT22;57257;48.408;-4.498;2022-11-15T08:29:24;13.93;79.08
69944;DHT22;57257;48.408;-4.498;2022-11-15T08:31:50;14.04;79.47
69944;DHT22;57257;48.408;-4.498;2022-11-15T08:34:16;14.17;79.29
69944;DHT22;57257;48.408;-4.498;2022-11-15T08:36:42;14.37;79.36
69944;DHT22;57257;48.408;-4.498;2022-11-15T08:39:11;14.57;78.96
69944;DHT22;57257;48.408;-4.498;2022-11-15T08:41:39;14.78;78.65
69944;DHT22;57257;48.408;-4.498;2022-11-15T08:44:05;14.89;77.99
69944;DHT22;57257;48.408;-4.498;2022-11-15T08:46:30;15.03;77.69
69944;DHT22;57257;48.408;-4.498;2022-11-15T08:48:56;15.12;77.16
69944;DHT22;57257;48.408;-4.498;2022-11-15T08:51:21;15.28;77.05
69944;DHT22;57257;48.408;-4.498;2022-11-15T08:53:47;15.32;76.24
69944;DHT22;57257;48.408;-4.498;2022-11-15T08:56:14;15.29;76.16
69944;DHT22;57257;48.408;-4.498;2022-11-15T08:58:42;15.32;76.28
69944;DHT22;57257;48.408;-4.498;2022-11-15T09:01:16;15.30;75.95
69944;DHT22;57257;48.408;-4.498;2022-11-15T09:03:42;15.33;75.79
69944;DHT22;57257;48.408;-4.498;2022-11-15T09:06:07;15.33;75.51
69944;DHT22;57257;48.408;-4.498;2022-11-15T09:08:34;15.29;75.39
69944;DHT22;57257;48.408;-4.498;2022-11-15T09:11:04;15.30;75.19
69944;DHT22;57257;48.408;-4.498;2022-11-15T09:13:30;15.36;74.74
69944;DHT22;57257;48.408;-4.498;2022-11-15T09:16:01;15.30;73.88
69944;DHT22;57257;48.408;-4.498;2022-11-15T09:18:27;15.25;74.38
69944;DHT22;57257;48.408;-4.498;2022-11-15T09:20:57;15.26;74.10
69944;DHT22;57257;48.408;-4.498;2022-11-15T09:23:23;15.32;74.37
69944;DHT22;57257;48.408;-4.498;2022-11-15T09:25:48;15.28;73.02
69944;DHT22;57257;48.408;-4.498;2022-11-15T09:28:14;15.18;72.92
69944;DHT22;57257;48.408;-4.498;2022-11-15T09:30:47;15.15;73.36
69944;DHT22;57257;48.408;-4.498;2022-11-15T09:33:17;15.23;73.43
69944;DHT22;57257;48.408;-4.498;2022-11-15T09:35:42;15.28;72.85
69944;DHT22;57257;48.408;-4.498;2022-11-15T09:38:08;15.32;72.18
69944;DHT22;57257;48.408;-4.498;2022-11-15T09:40:37;15.50;72.36
69944;DHT22;57257;48.408;-4.498;2022-11-15T09:48:42;15.74;70.07
69944;DHT22;57257;48.408;-4.498;2022-11-15T09:51:16;15.96;70.20
69944;DHT22;57257;48.408;-4.498;2022-11-15T09:53:51;16.11;69.31
69944;DHT22;57257;48.408;-4.498;2022-11-15T09:56:21;16.13;69.06
69944;DHT22;57257;48.408;-4.498;2022-11-15T09:59:03;16.13;68.57
69944;DHT22;57257;48.408;-4.498;2022-11-15T10:04:29;15.94;68.12
69944;DHT22;57257;48.408;-4.498;2022-11-15T10:09:54;16.03;68.71
69944;DHT22;57257;48.408;-4.498;2022-11-15T10:12:22;16.10;68.78
69944;DHT22;57257;48.408;-4.498;2022-11-15T10:14:50;16.18;68.38
69944;DHT22;57257;48.408;-4.498;2022-11-15T10:17:37;16.22;67.78
69944;DHT22;57257;48.408;-4.498;2022-11-15T10:20:18;16.28;67.12
69944;DHT22;57257;48.408;-4.498;2022-11-15T10:22:50;16.35;66.24
69944;DHT22;57257;48.408;-4.498;2022-11-15T10:25:23;16.47;65.71
69944;DHT22;57257;48.408;-4.498;2022-11-15T10:27:59;16.59;65.46
69944;DHT22;57257;48.408;-4.498;2022-11-15T10:30:37;16.68;65.20
69944;DHT22;57257;48.408;-4.498;2022-11-15T10:35:43;16.76;64.37
69944;DHT22;57257;48.408;-4.498;2022-11-15T10:38:10;16.95;64.98
69944;DHT22;57257;48.408;-4.498;2022-11-15T10:40:38;16.92;63.23
69944;DHT22;57257;48.408;-4.498;2022-11-15T10:43:13;16.69;63.33
69944;DHT22;57257;48.408;-4.498;2022-11-15T10:45:39;16.41;64.64
69944;DHT22;57257;48.408;-4.498;2022-11-15T10:50:41;15.87;66.11
69944;DHT22;57257;48.408;-4.498;2022-11-15T10:55:50;15.60;68.24
69944;DHT22;57257;48.408;-4.498;2022-11-15T10:58:30;15.43;68.97
69944;DHT22;57257;48.408;-4.498;2022-11-15T11:01:18;15.36;68.92
69944;DHT22;57257;48.408;-4.498;2022-11-15T11:03:46;15.25;69.58
69944;DHT22;57257;48.408;-4.498;2022-11-15T11:06:30;15.22;70.79
69944;DHT22;57257;48.408;-4.498;2022-11-15T11:08:57;15.18;71.33
69944;DHT22;57257;48.408;-4.498;2022-11-15T11:11:24;15.05;70.94
69944;DHT22;57257;48.408;-4.498;2022-11-15T11:13:49;14.98;71.56
69944;DHT22;57257;48.408;-4.498;2022-11-15T11:22:09;14.61;72.62
69944;DHT22;57257;48.408;-4.498;2022-11-15T11:24:45;14.60;71.83
69944;DHT22;57257;48.408;-4.498;2022-11-15T11:35:28;14.47;69.97
69944;DHT22;57257;48.408;-4.498;2022-11-15T11:41:14;14.37;70.24
69944;DHT22;57257;48.408;-4.498;2022-11-15T11:54:41;14.17;68.01
69944;DHT22;57257;48.408;-4.498;2022-11-15T11:57:33;14.09;68.34
69944;DHT22;57257;48.408;-4.498;2022-11-15T12:00:12;14.09;67.34
69944;DHT22;57257;48.408;-4.498;2022-11-15T12:02:43;13.96;67.23
69944;DHT22;57257;48.408;-4.498;2022-11-15T12:05:16;13.97;68.93
69944;DHT22;57257;48.408;-4.498;2022-11-15T12:07:44;14.07;68.58
69944;DHT22;57257;48.408;-4.498;2022-11-15T12:10:28;14.14;68.83
69944;DHT22;57257;48.408;-4.498;2022-11-15T12:13:06;14.27;68.77
69944;DHT22;57257;48.408;-4.498;2022-11-15T12:15:39;14.41;68.87
69944;DHT22;57257;48.408;-4.498;2022-11-15T12:18:08;14.49;68.06
69944;DHT22;57257;48.408;-4.498;2022-11-15T12:20:41;14.64;68.67
69944;DHT22;57257;48.408;-4.498;2022-11-15T12:23:14;14.79;68.34
69944;DHT22;57257;48.408;-4.498;2022-11-15T12:28:35;14.79;67.07
69944;DHT22;57257;48.408;-4.498;2022-11-15T12:31:24;14.95;67.27
69944;DHT22;57257;48.408;-4.498;2022-11-15T12:33:56;15.15;66.62
69944;DHT22;57257;48.408;-4.498;2022-11-15T12:38:58;15.39;65.92
69944;DHT22;57257;48.408;-4.498;2022-11-15T12:41:25;15.49;64.24
69944;DHT22;57257;48.408;-4.498;2022-11-15T12:43:50;15.64;64.65
69944;DHT22;57257;48.408;-4.498;2022-11-15T12:49:02;15.77;62.14
69944;DHT22;57257;48.408;-4.498;2022-11-15T13:02:24;15.90;59.97
69944;DHT22;57257;48.408;-4.498;2022-11-15T13:04:55;16.06;59.93
69944;DHT22;57257;48.408;-4.498;2022-11-15T13:20:16;16.71;59.15
69944;DHT22;57257;48.408;-4.498;2022-11-15T13:28:20;17.33;58.16
69944;DHT22;57257;48.408;-4.498;2022-11-15T13:33:51;18.39;56.58
69944;DHT22;57257;48.408;-4.498;2022-11-15T13:36:21;18.98;53.23
69944;DHT22;57257;48.408;-4.498;2022-11-15T13:38:57;18.76;52.96
69944;DHT22;57257;48.408;-4.498;2022-11-15T13:41:25;18.12;52.22
69944;DHT22;57257;48.408;-4.498;2022-11-15T13:43:53;18.22;53.80
69944;DHT22;57257;48.408;-4.498;2022-11-15T13:46:32;19.44;51.72
69944;DHT22;57257;48.408;-4.498;2022-11-15T13:49:03;20.26;51.02
69944;DHT22;57257;48.408;-4.498;2022-11-15T13:57:24;22.32;44.75
69944;DHT22;57257;48.408;-4.498;2022-11-15T14:00:26;21.92;46.31
69944;DHT22;57257;48.408;-4.498;2022-11-15T14:02:54;21.77;44.83
69944;DHT22;57257;48.408;-4.498;2022-11-15T14:05:22;21.70;44.85
69944;DHT22;57257;48.408;-4.498;2022-11-15T14:10:42;22.05;45.85
69944;DHT22;57257;48.408;-4.498;2022-11-15T14:13:28;22.70;45.39
69944;DHT22;57257;48.408;-4.498;2022-11-15T14:15:54;23.16;43.03
69944;DHT22;57257;48.408;-4.498;2022-11-15T14:18:46;23.13;43.56
69944;DHT22;57257;48.408;-4.498;2022-11-15T14:21:12;21.90;43.31
69944;DHT22;57257;48.408;-4.498;2022-11-15T14:23:38;20.77;45.67
69944;DHT22;57257;48.408;-4.498;2022-11-15T14:26:04;20.02;48.03
69944;DHT22;57257;48.408;-4.498;2022-11-15T14:28:32;19.50;48.95
69944;DHT22;57257;48.408;-4.498;2022-11-15T14:30:59;19.13;49.99
69944;DHT22;57257;48.408;-4.498;2022-11-15T14:33:30;18.65;50.55
69944;DHT22;57257;48.408;-4.498;2022-11-15T14:38:36;17.74;51.94
69944;DHT22;57257;48.408;-4.498;2022-11-15T14:41:01;17.43;52.77
69944;DHT22;57257;48.408;-4.498;2022-11-15T14:43:27;17.19;53.39
69944;DHT22;57257;48.408;-4.498;2022-11-15T14:45:52;16.93;54.00
69944;DHT22;57257;48.408;-4.498;2022-11-15T14:48:18;16.81;55.03
69944;DHT22;57257;48.408;-4.498;2022-11-15T14:50:43;16.76;55.40
69944;DHT22;57257;48.408;-4.498;2022-11-15T14:53:15;16.71;55.28
69944;DHT22;57257;48.408;-4.498;2022-11-15T14:55:40;16.37;55.45
69944;DHT22;57257;48.408;-4.498;2022-11-15T14:58:07;16.18;55.73
69944;DHT22;57257;48.408;-4.498;2022-11-15T15:00:37;16.00;55.54
69944;DHT22;57257;48.408;-4.498;2022-11-15T15:03:04;15.87;55.85
69944;DHT22;57257;48.408;-4.498;2022-11-15T15:07:58;15.46;57.49
69944;DHT22;57257;48.408;-4.498;2022-11-15T15:10:25;15.32;57.90
69944;DHT22;57257;48.408;-4.498;2022-11-15T15:12:52;15.28;58.21
69944;DHT22;57257;48.408;-4.498;2022-11-15T15:15:24;15.29;58.37
69944;DHT22;57257;48.408;-4.498;2022-11-15T15:17:49;15.28;57.68
69944;DHT22;57257;48.408;-4.498;2022-11-15T15:20:15;15.22;57.74
69944;DHT22;57257;48.408;-4.498;2022-11-15T15:22:40;15.12;58.21
69944;DHT22;57257;48.408;-4.498;2022-11-15T15:27:10;15.16;58.88
69944;DHT22;57257;48.408;-4.498;2022-11-15T15:29:36;15.12;58.72
69944;DHT22;57257;48.408;-4.498;2022-11-15T15:32:01;15.01;59.12
69944;DHT22;57257;48.408;-4.498;2022-11-15T15:34:27;14.99;59.45
69944;DHT22;57257;48.408;-4.498;2022-11-15T15:37:22;14.93;59.69
69944;DHT22;57257;48.408;-4.498;2022-11-15T15:39:53;14.89;60.07
69944;DHT22;57257;48.408;-4.498;2022-11-15T15:42:20;14.88;60.16
69944;DHT22;57257;48.408;-4.498;2022-11-15T15:44:46;14.89;60.16
69944;DHT22;57257;48.408;-4.498;2022-11-15T15:47:14;14.96;60.52
69944;DHT22;57257;48.408;-4.498;2022-11-15T15:49:41;15.01;60.45
69944;DHT22;57257;48.408;-4.498;2022-11-15T15:52:06;15.02;60.41
69944;DHT22;57257;48.408;-4.498;2022-11-15T15:54:31;15.01;60.13
69944;DHT22;57257;48.408;-4.498;2022-11-15T15:56:57;14.92;60.19
69944;DHT22;57257;48.408;-4.498;2022-11-15T15:59:22;14.88;59.62
69944;DHT22;57257;48.408;-4.498;2022-11-15T16:01:48;14.85;59.62
69944;DHT22;57257;48.408;-4.498;2022-11-15T16:04:13;14.82;59.87
69944;DHT22;57257;48.408;-4.498;2022-11-15T16:06:40;14.77;59.50
69944;DHT22;57257;48.408;-4.498;2022-11-15T16:09:15;14.69;59.87
69944;DHT22;57257;48.408;-4.498;2022-11-15T16:11:41;14.61;59.65
69944;DHT22;57257;48.408;-4.498;2022-11-15T16:14:07;14.55;59.75
69944;DHT22;57257;48.408;-4.498;2022-11-15T16:16:33;14.45;59.49
69944;DHT22;57257;48.408;-4.498;2022-11-15T16:18:59;14.33;59.83
69944;DHT22;57257;48.408;-4.498;2022-11-15T16:21:26;14.25;60.39
69944;DHT22;57257;48.408;-4.498;2022-11-15T16:23:51;14.23;60.84
69944;DHT22;57257;48.408;-4.498;2022-11-15T16:26:28;14.18;61.93
69944;DHT22;57257;48.408;-4.498;2022-11-15T16:28:54;14.09;62.31
69944;DHT22;57257;48.408;-4.498;2022-11-15T16:31:19;13.94;63.10
69944;DHT22;57257;48.408;-4.498;2022-11-15T16:33:48;13.89;64.10
69944;DHT22;57257;48.408;-4.498;2022-11-15T16:36:22;13.84;64.65
69944;DHT22;57257;48.408;-4.498;2022-11-15T16:38:48;13.79;65.18
69944;DHT22;57257;48.408;-4.498;2022-11-15T16:41:14;13.77;65.50
69944;DHT22;57257;48.408;-4.498;2022-11-15T16:43:43;13.74;65.73
69944;DHT22;57257;48.408;-4.498;2022-11-15T16:46:14;13.72;66.20
69944;DHT22;57257;48.408;-4.498;2022-11-15T16:48:40;13.69;66.31
69944;DHT22;57257;48.408;-4.498;2022-11-15T16:51:06;13.65;65.71
69944;DHT22;57257;48.408;-4.498;2022-11-15T16:53:31;13.49;65.54
69944;DHT22;57257;48.408;-4.498;2022-11-15T16:55:57;13.28;65.92
69944;DHT22;57257;48.408;-4.498;2022-11-15T16:58:23;13.19;66.37
69944;DHT22;57257;48.408;-4.498;2022-11-15T17:00:50;13.11;66.53
69944;DHT22;57257;48.408;-4.498;2022-11-15T17:03:16;13.07;66.70
69944;DHT22;57257;48.408;-4.498;2022-11-15T17:05:42;13.02;67.01
69944;DHT22;57257;48.408;-4.498;2022-11-15T17:08:07;12.97;67.22
69944;DHT22;57257;48.408;-4.498;2022-11-15T17:10:33;12.92;67.46
69944;DHT22;57257;48.408;-4.498;2022-11-15T17:12:58;12.94;67.45
69944;DHT22;57257;48.408;-4.498;2022-11-15T17:15:23;12.87;67.39
69944;DHT22;57257;48.408;-4.498;2022-11-15T17:17:53;12.85;67.61
69944;DHT22;57257;48.408;-4.498;2022-11-15T17:20:21;12.84;67.70
69944;DHT22;57257;48.408;-4.498;2022-11-15T17:22:47;12.88;67.64
69944;DHT22;57257;48.408;-4.498;2022-11-15T17:25:13;12.85;67.72
69944;DHT22;57257;48.408;-4.498;2022-11-15T17:27:38;12.84;67.90
69944;DHT22;57257;48.408;-4.498;2022-11-15T17:30:04;12.84;68.04
69944;DHT22;57257;48.408;-4.498;2022-11-15T17:32:30;12.78;68.39
69944;DHT22;57257;48.408;-4.498;2022-11-15T17:34:55;12.75;68.42
69944;DHT22;57257;48.408;-4.498;2022-11-15T17:37:21;12.71;68.54
69944;DHT22;57257;48.408;-4.498;2022-11-15T17:39:46;12.68;68.81
69944;DHT22;57257;48.408;-4.498;2022-11-15T17:42:12;12.64;68.89
69944;DHT22;57257;48.408;-4.498;2022-11-15T17:44:37;12.60;69.00